Pagrindinis puslapis
METAR-TAF:

METAR-TAF

Oro uostai :

Lionas, Prancūzija

platuma: 45-43N, ilguma: 004-57E, Aukštis: 200 m

Dabartinis oras

Ataskaita buvo paskelbta 38 minutes, ne 10:00 UTC
Vėjas 1 kt nuo kintamojo kryptimis
Temperatūra 4°C
Drėgmė 93%
Slėgis 1022 hPa
Matomumas: 4200 m
rūkana

METAR: LFLY 251000Z AUTO VRB01KT 4200 BR NSC 04/03 Q1022 TEMPO 1900

Laikas: 11:38 (10:38 UTC)

Prognozė

Ataskaita buvo paskelbta 2 valandos ir 23 minutes, ne 08:15 UTC
Prognozė galioja nuo 25 metu 08 UTC su 26 metu 06 UTC
Vėjas 2 kt nuo kintamojo kryptimis
Matomumas: 4000 m
rūkana
Laikinai
nuo 25 metu 08 UTC su 25 metu 14 UTC
Matomumas: 1900 m
Laikinai
nuo 25 metu 14 UTC su 25 metu 23 UTC
Matomumas: 7000 m
Tikimybė 30% :
Laikinai
nuo 25 metu 23 UTC su 26 metu 06 UTC
Matomumas: 0800 m
rūkas
Tapsmas
nuo 26 metu 04 UTC su 26 metu 06 UTC
Apsiniaukę ne aukštis 5000 ft

TAF: LFLY 250815Z 2508/2606 VRB02KT 4000 BR NSC TEMPO 2508/2514 1900 TEMPO 2514/2523 7000 NSW PROB30 TEMPO 2523/2606 0800 FG VV/// BECMG 2604/2606 OVC050

Orai ataskaitas ir orų prognozės (METAR, TAF).

turimą stotys yra geltonos ir raudonos taškus žemėlapyje.

Perkelti pele per norėdami pamatyti stoties vardą.

Tada spustelėkite, norėdami matyti oro stebėjimo ir prognozės.

Norėdami pakeisti žemėlapį: spustelėkite ant žalios mygtukų su juodo kryžiaus žemyn,; žalią mygtuką su brūkšneliu, jei norite nutolinti; arba žalių rodyklių gretimoms žemėlapius.


METAR-TAF: